Terminal Aerodrome Forecast
Issued by NWS

Home | Current Version | Previous Version | Text Only | Print | Product List | Glossary Off
Versions: 1 2 3 4 5 6 7 8 9 10 11 12 13 14

000
FTUS43 KMPX 221700
TAFRWF
TAF
KRWF 221730Z 2218/2318 06004KT P6SM SCT250
     FM222200 09006KT P6SM SCT200
     FM230300 12009KT P6SM BKN080 OVC120
     FM231000 13011KT P6SM VCSH OVC060
     FM231500 14017G25KT P6SM BKN060=

USA.gov is the U.S. government's official web portal to all federal, state and local government web resources and services.